createdAt,value
2022-09-23T00:00:53.320Z,1008.6
2022-09-23T00:02:09.000Z,1008.6
2022-09-23T00:03:25.906Z,1008.5
2022-09-23T00:04:42.197Z,1008.6
2022-09-23T00:05:58.494Z,1008.6
2022-09-23T00:07:13.791Z,1008.6
2022-09-23T00:08:30.098Z,1008.5
2022-09-23T00:09:46.396Z,1008.6
2022-09-23T00:11:02.682Z,1008.5
2022-09-23T00:12:18.971Z,1008.6
2022-09-23T00:13:35.261Z,1008.5
2022-09-23T00:14:51.568Z,1008.5
2022-09-23T00:16:07.846Z,1008.5
2022-09-23T00:17:24.144Z,1008.6
2022-09-23T00:18:40.430Z,1008.5
2022-09-23T00:19:56.745Z,1008.5
2022-09-23T00:21:13.021Z,1008.5
2022-09-23T00:22:29.321Z,1008.5
2022-09-23T00:23:44.625Z,1008.5
2022-09-23T00:25:00.921Z,1008.5
2022-09-23T00:26:17.225Z,1008.5
2022-09-23T00:27:33.519Z,1008.4
2022-09-23T00:28:49.814Z,1008.5
2022-09-23T00:30:06.088Z,1008.4
2022-09-23T00:31:22.400Z,1008.4
2022-09-23T00:32:38.691Z,1008.5
2022-09-23T00:33:54.985Z,1008.5
2022-09-23T00:35:11.273Z,1008.4
2022-09-23T00:36:27.558Z,1008.5
2022-09-23T00:37:43.846Z,1008.4
2022-09-23T00:39:00.149Z,1008.4
2022-09-23T00:40:15.448Z,1008.4
2022-09-23T00:41:31.758Z,1008.4
2022-09-23T00:42:48.036Z,1008.4
2022-09-23T00:44:04.339Z,1008.4
2022-09-23T00:45:20.633Z,1008.4
2022-09-23T00:46:36.933Z,1008.4
2022-09-23T00:47:53.220Z,1008.4
2022-09-23T00:49:09.521Z,1008.3
2022-09-23T00:50:25.805Z,1008.4
2022-09-23T00:51:42.096Z,1008.3
2022-09-23T00:52:58.397Z,1008.3
2022-09-23T00:54:14.000Z,1008.3
2022-09-23T00:55:30.983Z,1008.3
2022-09-23T00:56:46.287Z,1008.3
2022-09-23T00:58:02.579Z,1008.3
2022-09-23T00:59:18.873Z,1008.3
2022-09-23T01:00:35.162Z,1008.3
2022-09-23T01:01:51.469Z,1008.2
2022-09-23T01:03:07.752Z,1008.2
2022-09-23T01:04:24.049Z,1008.2
2022-09-23T01:05:40.346Z,1008.2
2022-09-23T01:06:56.637Z,1008.2
2022-09-23T01:08:12.919Z,1008.2
2022-09-23T01:09:29.225Z,1008.2
2022-09-23T01:10:45.521Z,1008.2
2022-09-23T01:12:01.799Z,1008.2
2022-09-23T01:13:17.129Z,1008.2
2022-09-23T01:14:33.416Z,1008.2
2022-09-23T01:15:49.706Z,1008.2
2022-09-23T01:17:05.994Z,1008.2
2022-09-23T01:18:22.290Z,1008.2
2022-09-23T01:19:38.576Z,1008.1
2022-09-23T01:20:54.884Z,1008.1
2022-09-23T01:22:11.175Z,1008.2
2022-09-23T01:23:27.455Z,1008.2
2022-09-23T01:24:43.748Z,1008.1
2022-09-23T01:26:00.058Z,1008.1
2022-09-23T01:27:16.336Z,1008
2022-09-23T01:28:32.645Z,1008.1
2022-09-23T01:29:47.954Z,1008.1
2022-09-23T01:31:04.252Z,1008.1
2022-09-23T01:32:20.540Z,1008.1
2022-09-23T01:33:36.830Z,1008
2022-09-23T01:34:53.130Z,1008.1
2022-09-23T01:36:09.410Z,1008
2022-09-23T01:37:24.737Z,1008.1
2022-09-23T01:38:41.000Z,1008.1
2022-09-23T01:39:57.327Z,1008.1
2022-09-23T01:41:13.620Z,1008
2022-09-23T01:42:29.905Z,1008
2022-09-23T01:43:46.196Z,1008
2022-09-23T01:45:02.487Z,1008
2022-09-23T01:46:18.781Z,1008
2022-09-23T01:47:35.069Z,1008
2022-09-23T01:48:51.378Z,1008
2022-09-23T01:50:07.673Z,1008
2022-09-23T01:51:23.962Z,1007.9
2022-09-23T01:52:40.257Z,1007.9
2022-09-23T01:53:55.571Z,1007.9
2022-09-23T01:55:11.859Z,1007.9
2022-09-23T01:56:28.155Z,1007.8
2022-09-23T01:57:44.450Z,1007.8
2022-09-23T01:59:00.729Z,1007.9
2022-09-23T02:00:17.030Z,1007.8
2022-09-23T02:01:33.315Z,1007.8
2022-09-23T02:02:49.611Z,1007.8
2022-09-23T02:04:05.907Z,1007.8
2022-09-23T02:05:22.198Z,1007.8
2022-09-23T02:06:38.502Z,1007.8
2022-09-23T02:07:54.790Z,1007.8
2022-09-23T02:09:11.076Z,1007.7
2022-09-23T02:10:26.398Z,1007.7
2022-09-23T02:11:42.691Z,1007.7
2022-09-23T02:12:58.974Z,1007.7
2022-09-23T02:14:15.268Z,1007.7
2022-09-23T02:15:31.563Z,1007.7
2022-09-23T02:16:47.858Z,1007.7
2022-09-23T02:18:04.155Z,1007.7
2022-09-23T02:19:20.453Z,1007.7
2022-09-23T02:20:36.744Z,1007.7
2022-09-23T02:21:53.038Z,1007.6
2022-09-23T02:23:09.332Z,1007.6
2022-09-23T02:24:25.613Z,1007.6
2022-09-23T02:25:41.910Z,1007.6
2022-09-23T02:26:57.227Z,1007.6
2022-09-23T02:28:13.520Z,1007.6
2022-09-23T02:29:29.807Z,1007.6
2022-09-23T02:30:46.120Z,1007.5
2022-09-23T02:32:02.399Z,1007.5
2022-09-23T02:33:18.692Z,1007.5
2022-09-23T02:34:34.992Z,1007.6
2022-09-23T02:35:51.283Z,1007.6
2022-09-23T02:37:07.563Z,1007.6
2022-09-23T02:38:23.859Z,1007.5
2022-09-23T02:39:40.147Z,1007.5
2022-09-23T02:40:56.456Z,1007.5
2022-09-23T02:42:12.739Z,1007.5
2022-09-23T02:43:28.051Z,1007.5
2022-09-23T02:44:44.350Z,1007.5
2022-09-23T02:46:00.651Z,1007.5
2022-09-23T02:47:16.928Z,1007.5
2022-09-23T02:48:33.225Z,1007.5
2022-09-23T02:49:49.526Z,1007.5
2022-09-23T02:51:05.821Z,1007.4
2022-09-23T02:52:22.116Z,1007.4
2022-09-23T02:53:38.404Z,1007.4
2022-09-23T02:54:54.705Z,1007.5
2022-09-23T02:56:10.985Z,1007.5
2022-09-23T02:57:27.292Z,1007.4
2022-09-23T02:58:43.578Z,1007.4
2022-09-23T02:59:58.889Z,1007.4
2022-09-23T03:01:15.174Z,1007.4
2022-09-23T03:02:31.476Z,1007.4
2022-09-23T03:03:47.757Z,1007.4
2022-09-23T03:05:04.053Z,1007.4
2022-09-23T03:06:20.356Z,1007.4
2022-09-23T03:07:36.654Z,1007.3
2022-09-23T03:08:52.938Z,1007.3
2022-09-23T03:10:09.236Z,1007.3
2022-09-23T03:11:25.523Z,1007.3
2022-09-23T03:12:41.828Z,1007.3
2022-09-23T03:13:58.115Z,1007.3
2022-09-23T03:15:14.412Z,1007.3
2022-09-23T03:16:29.713Z,1007.3
2022-09-23T03:17:46.016Z,1007.3
2022-09-23T03:19:02.306Z,1007.3
2022-09-23T03:20:18.599Z,1007.2
2022-09-23T03:21:34.903Z,1007.3
2022-09-23T03:22:51.189Z,1007.3
2022-09-23T03:24:07.478Z,1007.2
2022-09-23T03:25:23.770Z,1007.3
2022-09-23T03:26:40.064Z,1007.3
2022-09-23T03:27:56.362Z,1007.2
2022-09-23T03:29:12.654Z,1007.2
2022-09-23T03:30:28.943Z,1007.2
2022-09-23T03:31:45.240Z,1007.2
2022-09-23T03:33:00.555Z,1007.2
2022-09-23T03:34:16.839Z,1007.2
2022-09-23T03:35:33.131Z,1007.2
2022-09-23T03:36:49.435Z,1007.2
2022-09-23T03:38:05.711Z,1007.2
2022-09-23T03:39:22.025Z,1007.2
2022-09-23T03:40:38.317Z,1007.2
2022-09-23T03:41:54.593Z,1007.2
2022-09-23T03:43:10.899Z,1007.1
2022-09-23T03:44:27.196Z,1007.1
2022-09-23T03:45:43.491Z,1007.1
2022-09-23T03:46:59.783Z,1007.1
2022-09-23T03:48:16.060Z,1007.1
2022-09-23T03:49:31.369Z,1007.1
2022-09-23T03:50:47.683Z,1007.1
2022-09-23T03:52:03.968Z,1007.1
2022-09-23T03:53:20.264Z,1007.1
2022-09-23T03:54:36.548Z,1007
2022-09-23T03:55:52.848Z,1007
2022-09-23T03:57:09.142Z,1007
2022-09-23T03:58:25.432Z,1007
2022-09-23T03:59:41.736Z,1007
2022-09-23T04:00:58.016Z,1007
2022-09-23T04:02:14.322Z,1007
2022-09-23T04:03:30.613Z,1007
2022-09-23T04:04:46.909Z,1007
2022-09-23T04:06:02.215Z,1007
2022-09-23T04:07:18.514Z,1007
2022-09-23T04:08:34.809Z,1006.9
2022-09-23T04:09:51.091Z,1007
2022-09-23T04:11:07.388Z,1006.9
2022-09-23T04:12:23.688Z,1006.9
2022-09-23T04:13:39.979Z,1006.9
2022-09-23T04:14:56.256Z,1006.9
2022-09-23T04:16:12.561Z,1006.9
2022-09-23T04:17:28.846Z,1006.8
2022-09-23T04:18:45.141Z,1006.8
2022-09-23T04:20:01.442Z,1006.8
2022-09-23T04:21:17.732Z,1006.8
2022-09-23T04:22:33.041Z,1006.8
2022-09-23T04:23:49.340Z,1006.8
2022-09-23T04:25:05.629Z,1006.8
2022-09-23T04:26:21.914Z,1006.8
2022-09-23T04:27:38.218Z,1006.8
2022-09-23T04:28:54.454Z,1006.8
2022-09-23T04:30:10.748Z,1006.8
2022-09-23T04:31:27.006Z,1006.7
2022-09-23T04:32:43.241Z,1006.8
2022-09-23T04:33:59.544Z,1006.7
2022-09-23T04:35:15.790Z,1006.7
2022-09-23T04:36:32.033Z,1006.8
2022-09-23T04:37:48.309Z,1006.8
2022-09-23T04:39:03.583Z,1006.7
2022-09-23T04:40:19.836Z,1006.7
2022-09-23T04:41:36.070Z,1006.7
2022-09-23T04:42:52.303Z,1006.7
2022-09-23T04:44:08.548Z,1006.7
2022-09-23T04:45:24.784Z,1006.7
2022-09-23T04:46:41.018Z,1006.7
2022-09-23T04:47:57.253Z,1006.7
2022-09-23T04:49:13.502Z,1006.7
2022-09-23T04:50:29.737Z,1006.7
2022-09-23T04:51:45.972Z,1006.7
2022-09-23T04:53:02.221Z,1006.7
2022-09-23T04:54:18.459Z,1006.7
2022-09-23T04:55:33.715Z,1006.7
2022-09-23T04:56:49.944Z,1006.7
2022-09-23T04:58:06.183Z,1006.7
2022-09-23T04:59:22.443Z,1006.7
2022-09-23T05:00:38.673Z,1006.7
2022-09-23T05:01:54.902Z,1006.7
2022-09-23T05:03:11.149Z,1006.7
2022-09-23T05:04:27.400Z,1006.8
2022-09-23T05:05:43.630Z,1006.8
2022-09-23T05:06:59.873Z,1006.8
2022-09-23T05:08:16.112Z,1006.7
2022-09-23T05:09:32.345Z,1006.7
2022-09-23T05:10:48.584Z,1006.7
2022-09-23T05:12:03.848Z,1006.7
2022-09-23T05:13:20.072Z,1006.8
2022-09-23T05:14:36.312Z,1006.7
2022-09-23T05:15:52.554Z,1006.7
2022-09-23T05:17:08.807Z,1006.7
2022-09-23T05:18:25.043Z,1006.7
2022-09-23T05:19:41.285Z,1006.7
2022-09-23T05:20:57.526Z,1006.7
2022-09-23T05:22:13.769Z,1006.7
2022-09-23T05:23:30.001Z,1006.7
2022-09-23T05:24:46.240Z,1006.7
2022-09-23T05:26:02.482Z,1006.8
2022-09-23T05:27:18.718Z,1006.7
2022-09-23T05:28:33.974Z,1006.7
2022-09-23T05:29:50.209Z,1006.7
2022-09-23T05:31:06.447Z,1006.7
2022-09-23T05:32:22.687Z,1006.7
2022-09-23T05:34:55.167Z,1006.7
2022-09-23T05:36:11.406Z,1006.7
2022-09-23T05:37:27.644Z,1006.7
2022-09-23T05:38:43.882Z,1006.7
2022-09-23T05:40:00.128Z,1006.7
2022-09-23T05:41:16.360Z,1006.7
2022-09-23T05:42:32.606Z,1006.7
2022-09-23T05:43:48.854Z,1006.7
2022-09-23T05:45:04.095Z,1006.7
2022-09-23T05:46:20.347Z,1006.7
2022-09-23T05:47:36.573Z,1006.7
2022-09-23T05:48:52.820Z,1006.7
2022-09-23T05:50:09.063Z,1006.7
2022-09-23T05:51:25.298Z,1006.7
2022-09-23T05:52:40.567Z,1006.7
2022-09-23T05:53:56.807Z,1006.7
2022-09-23T05:55:13.042Z,1006.6
2022-09-23T05:56:29.277Z,1006.6
2022-09-23T05:57:45.516Z,1006.6
2022-09-23T05:59:01.751Z,1006.6
2022-09-23T06:00:18.001Z,1006.6
2022-09-23T06:01:34.240Z,1006.6
2022-09-23T06:02:50.474Z,1006.6
2022-09-23T06:04:06.724Z,1006.6
2022-09-23T06:05:22.961Z,1006.6
2022-09-23T06:06:39.187Z,1006.6
2022-09-23T06:07:55.425Z,1006.6
2022-09-23T06:09:10.687Z,1006.5
2022-09-23T06:10:26.920Z,1006.6
2022-09-23T06:11:43.177Z,1006.6
2022-09-23T06:12:59.417Z,1006.6
2022-09-23T06:14:15.639Z,1006.6
2022-09-23T06:15:31.893Z,1006.7
2022-09-23T06:16:48.116Z,1006.6
2022-09-23T06:18:04.358Z,1006.7
2022-09-23T06:19:20.605Z,1006.7
2022-09-23T06:20:36.847Z,1006.7
2022-09-23T06:21:53.078Z,1006.7
2022-09-23T06:23:09.317Z,1006.7
2022-09-23T06:24:25.565Z,1006.6
2022-09-23T06:25:40.808Z,1006.7
2022-09-23T06:26:57.065Z,1006.6
2022-09-23T06:28:13.296Z,1006.7
2022-09-23T06:29:29.534Z,1006.7
2022-09-23T06:30:45.786Z,1006.7
2022-09-23T06:32:02.014Z,1006.7
2022-09-23T06:33:18.257Z,1006.7
2022-09-23T06:34:34.493Z,1006.7
2022-09-23T06:35:50.726Z,1006.7
2022-09-23T06:37:06.970Z,1006.7
2022-09-23T06:38:23.209Z,1006.6
2022-09-23T06:39:39.460Z,1006.7
2022-09-23T06:40:55.687Z,1006.7
2022-09-23T06:42:10.957Z,1006.7
2022-09-23T06:43:27.183Z,1006.7
2022-09-23T06:44:43.422Z,1006.6
2022-09-23T06:45:59.667Z,1006.6
2022-09-23T06:47:15.909Z,1006.6
2022-09-23T06:48:32.140Z,1006.7
2022-09-23T06:49:48.383Z,1006.7
2022-09-23T06:51:04.615Z,1006.7
2022-09-23T06:52:20.864Z,1006.7
2022-09-23T06:53:37.097Z,1006.7
2022-09-23T06:54:53.338Z,1006.7
2022-09-23T06:56:09.583Z,1006.7
2022-09-23T06:57:25.827Z,1006.7
2022-09-23T06:58:41.071Z,1006.7
2022-09-23T06:59:57.312Z,1006.7
2022-09-23T07:01:13.559Z,1006.7
2022-09-23T07:02:29.794Z,1006.8
2022-09-23T07:03:46.038Z,1006.8
2022-09-23T07:05:02.271Z,1006.8
2022-09-23T07:06:18.522Z,1006.7
2022-09-23T07:07:34.761Z,1006.8
2022-09-23T07:08:50.998Z,1006.7
2022-09-23T07:10:07.229Z,1006.8
2022-09-23T07:11:23.472Z,1006.8
2022-09-23T07:12:39.702Z,1006.8
2022-09-23T07:13:55.953Z,1006.8
2022-09-23T07:15:11.199Z,1006.8
2022-09-23T07:16:27.441Z,1006.8
2022-09-23T07:17:43.694Z,1006.8
2022-09-23T07:18:59.916Z,1006.8
2022-09-23T07:20:16.152Z,1006.7
2022-09-23T07:21:32.394Z,1006.7
2022-09-23T07:22:48.641Z,1006.7
2022-09-23T07:24:04.887Z,1006.7
2022-09-23T07:25:21.122Z,1006.7
2022-09-23T07:26:37.352Z,1006.7
2022-09-23T07:27:53.588Z,1006.7
2022-09-23T07:29:09.831Z,1006.7
2022-09-23T07:30:26.086Z,1006.7
2022-09-23T07:31:41.325Z,1006.8
2022-09-23T07:32:57.578Z,1006.7
2022-09-23T07:34:13.803Z,1006.7
2022-09-23T07:35:30.051Z,1006.7
2022-09-23T07:36:46.283Z,1006.7
2022-09-23T07:38:02.528Z,1006.7
2022-09-23T07:39:18.776Z,1006.7
2022-09-23T07:40:35.015Z,1006.7
2022-09-23T07:41:51.248Z,1006.7
2022-09-23T07:43:07.477Z,1006.7
2022-09-23T07:44:23.719Z,1006.7
2022-09-23T07:45:39.969Z,1006.7
2022-09-23T07:46:56.216Z,1006.7
2022-09-23T07:48:11.452Z,1006.7
2022-09-23T07:49:27.701Z,1006.7
2022-09-23T07:50:43.932Z,1006.7
2022-09-23T07:52:00.171Z,1006.8
2022-09-23T07:53:16.412Z,1006.7
2022-09-23T07:54:32.650Z,1006.7
2022-09-23T07:55:48.900Z,1006.7
2022-09-23T07:57:05.127Z,1006.7
2022-09-23T07:58:21.000Z,1006.6
2022-09-23T07:59:37.623Z,1006.7
2022-09-23T08:00:53.845Z,1006.7
2022-09-23T08:02:10.093Z,1006.7
2022-09-23T08:03:26.342Z,1006.6
2022-09-23T08:04:41.592Z,1006.6
2022-09-23T08:05:57.825Z,1006.7
2022-09-23T08:07:14.063Z,1006.6
2022-09-23T08:08:30.306Z,1006.6
2022-09-23T08:09:46.559Z,1006.7
2022-09-23T08:11:02.788Z,1006.6
2022-09-23T08:12:19.019Z,1006.6
2022-09-23T08:13:35.265Z,1006.6
2022-09-23T08:14:51.513Z,1006.6
2022-09-23T08:16:07.741Z,1006.6
2022-09-23T08:17:23.995Z,1006.6
2022-09-23T08:18:40.219Z,1006.6
2022-09-23T08:19:56.464Z,1006.6
2022-09-23T08:21:11.718Z,1006.7
2022-09-23T08:22:27.955Z,1006.7
2022-09-23T08:23:44.199Z,1006.6
2022-09-23T08:25:00.443Z,1006.6
2022-09-23T08:26:16.672Z,1006.6
2022-09-23T08:27:32.913Z,1006.7
2022-09-23T08:28:49.162Z,1006.6
2022-09-23T08:30:05.396Z,1006.6
2022-09-23T08:31:21.645Z,1006.6
2022-09-23T08:32:37.892Z,1006.6
2022-09-23T08:33:54.119Z,1006.6
2022-09-23T08:35:10.361Z,1006.6
2022-09-23T08:36:26.593Z,1006.6
2022-09-23T08:37:41.857Z,1006.5
2022-09-23T08:38:58.103Z,1006.6
2022-09-23T08:40:14.330Z,1006.5
2022-09-23T08:41:30.572Z,1006.5
2022-09-23T08:42:46.818Z,1006.5
2022-09-23T08:44:03.045Z,1006.5
2022-09-23T08:45:19.294Z,1006.5
2022-09-23T08:46:35.528Z,1006.4
2022-09-23T08:47:51.773Z,1006.4
2022-09-23T08:49:08.022Z,1006.4
2022-09-23T08:50:24.246Z,1006.4
2022-09-23T08:51:40.492Z,1006.4
2022-09-23T08:52:56.737Z,1006.5
2022-09-23T08:54:11.980Z,1006.4
2022-09-23T08:55:28.226Z,1006.4
2022-09-23T08:56:44.459Z,1006.5
2022-09-23T08:58:00.696Z,1006.4
2022-09-23T08:59:16.936Z,1006.4
2022-09-23T09:00:33.181Z,1006.4
2022-09-23T09:01:49.434Z,1006.4
2022-09-23T09:03:05.655Z,1006.4
2022-09-23T09:04:21.902Z,1006.3
2022-09-23T09:05:38.135Z,1006.4
2022-09-23T09:06:54.377Z,1006.4
2022-09-23T09:08:10.614Z,1006.4
2022-09-23T09:09:26.869Z,1006.3
2022-09-23T09:10:42.119Z,1006.3
2022-09-23T09:11:58.353Z,1006.3
2022-09-23T09:13:14.591Z,1006.3
2022-09-23T09:14:30.821Z,1006.3
2022-09-23T09:15:47.072Z,1006.3
2022-09-23T09:17:03.312Z,1006.3
2022-09-23T09:18:19.541Z,1006.3
2022-09-23T09:19:35.778Z,1006.3
2022-09-23T09:20:52.036Z,1006.2
2022-09-23T09:22:08.265Z,1006.2
2022-09-23T09:23:24.512Z,1006.2
2022-09-23T09:24:40.753Z,1006.3
2022-09-23T09:25:56.980Z,1006.2
2022-09-23T09:27:12.243Z,1006.2
2022-09-23T09:28:28.472Z,1006.2
2022-09-23T09:29:44.706Z,1006.2
2022-09-23T09:31:00.963Z,1006.2
2022-09-23T09:32:17.188Z,1006.2
2022-09-23T09:33:33.440Z,1006.3
2022-09-23T09:34:49.676Z,1006.2
2022-09-23T09:36:05.904Z,1006.2
2022-09-23T09:37:22.147Z,1006.2
2022-09-23T09:38:38.384Z,1006.2
2022-09-23T09:39:54.628Z,1006.1
2022-09-23T09:41:10.867Z,1006.2
2022-09-23T09:42:27.109Z,1006.2
2022-09-23T09:43:42.359Z,1006.1
2022-09-23T09:44:58.592Z,1006.1
2022-09-23T09:46:14.832Z,1006.1
2022-09-23T09:47:31.071Z,1006.1
2022-09-23T09:48:47.308Z,1006.1
2022-09-23T09:50:03.555Z,1006.1
2022-09-23T09:51:19.788Z,1006.1
2022-09-23T09:52:36.032Z,1006
2022-09-23T09:53:52.265Z,1006
2022-09-23T09:55:08.499Z,1005.9
2022-09-23T09:56:24.748Z,1006
2022-09-23T09:57:40.976Z,1005.9
2022-09-23T09:58:57.216Z,1005.9
2022-09-23T10:00:12.465Z,1005.9
2022-09-23T10:01:28.717Z,1005.9
2022-09-23T10:02:44.953Z,1005.9
2022-09-23T10:04:01.200Z,1005.8
2022-09-23T10:05:17.437Z,1005.8
2022-09-23T10:06:33.663Z,1005.8
2022-09-23T10:07:48.926Z,1005.8
2022-09-23T10:09:05.167Z,1005.8
2022-09-23T10:10:21.407Z,1005.8
2022-09-23T10:11:37.637Z,1005.7
2022-09-23T10:12:53.886Z,1005.7
2022-09-23T10:14:10.120Z,1005.7
2022-09-23T10:15:26.372Z,1005.7
2022-09-23T10:16:42.600Z,1005.7
2022-09-23T10:17:58.839Z,1005.7
2022-09-23T10:19:15.082Z,1005.7
2022-09-23T10:20:31.334Z,1005.7
2022-09-23T10:21:47.568Z,1005.6
2022-09-23T10:23:03.799Z,1005.6
2022-09-23T10:24:19.069Z,1005.6
2022-09-23T10:25:35.301Z,1005.6
2022-09-23T10:26:51.550Z,1005.6
2022-09-23T10:28:07.781Z,1005.6
2022-09-23T10:29:24.016Z,1005.7
2022-09-23T10:30:40.269Z,1005.6
2022-09-23T10:31:56.501Z,1005.6
2022-09-23T10:33:12.732Z,1005.6
2022-09-23T10:34:28.988Z,1005.6
2022-09-23T10:35:45.216Z,1005.6
2022-09-23T10:37:01.472Z,1005.5
2022-09-23T10:38:17.701Z,1005.5
2022-09-23T10:39:33.950Z,1005.5
2022-09-23T10:40:49.195Z,1005.5
2022-09-23T10:42:05.432Z,1005.5
2022-09-23T10:43:21.686Z,1005.5
2022-09-23T10:44:37.909Z,1005.5
2022-09-23T10:45:54.163Z,1005.5
2022-09-23T10:47:10.391Z,1005.5
2022-09-23T10:48:26.630Z,1005.5
2022-09-23T10:49:42.880Z,1005.5
2022-09-23T10:50:59.115Z,1005.5
2022-09-23T10:52:15.357Z,1005.5
2022-09-23T10:53:31.598Z,1005.5
2022-09-23T10:54:47.850Z,1005.5
2022-09-23T10:56:04.077Z,1005.4
2022-09-23T10:57:19.334Z,1005.4
2022-09-23T10:58:35.577Z,1005.4
2022-09-23T10:59:51.826Z,1005.4
2022-09-23T11:01:08.062Z,1005.4
2022-09-23T11:02:24.306Z,1005.4
2022-09-23T11:03:40.546Z,1005.3
2022-09-23T11:04:56.779Z,1005.3
2022-09-23T11:06:13.015Z,1005.3
2022-09-23T11:07:29.264Z,1005.3
2022-09-23T11:08:45.491Z,1005.3
2022-09-23T11:10:01.746Z,1005.3
2022-09-23T11:11:17.985Z,1005.2
2022-09-23T11:12:34.210Z,1005.2
2022-09-23T11:13:49.474Z,1005.2
2022-09-23T11:15:05.712Z,1005.2
2022-09-23T11:16:21.943Z,1005.2
2022-09-23T11:17:38.196Z,1005.2
2022-09-23T11:18:54.434Z,1005.2
2022-09-23T11:20:10.681Z,1005.1
2022-09-23T11:21:26.909Z,1005.1
2022-09-23T11:22:43.145Z,1005.1
2022-09-23T11:23:59.400Z,1005.1
2022-09-23T11:25:15.627Z,1005.1
2022-09-23T11:26:31.887Z,1005.1
2022-09-23T11:27:48.117Z,1005
2022-09-23T11:29:04.349Z,1005
2022-09-23T11:30:19.610Z,1005
2022-09-23T11:31:35.848Z,1005
2022-09-23T11:32:52.092Z,1005
2022-09-23T11:34:08.337Z,1004.9
2022-09-23T11:35:24.574Z,1004.9
2022-09-23T11:36:40.806Z,1005
2022-09-23T11:37:57.054Z,1004.9
2022-09-23T11:39:13.286Z,1005
2022-09-23T11:40:29.539Z,1004.9
2022-09-23T11:41:45.772Z,1004.9
2022-09-23T11:43:02.001Z,1004.9
2022-09-23T11:44:18.246Z,1004.9
2022-09-23T11:45:34.501Z,1004.9
2022-09-23T11:46:49.756Z,1004.9
2022-09-23T11:48:05.985Z,1004.9
2022-09-23T11:49:22.224Z,1004.7
2022-09-23T11:50:38.000Z,1004.8
2022-09-23T11:51:54.706Z,1004.7
2022-09-23T11:53:10.000Z,1004.8
2022-09-23T11:54:27.188Z,1004.7
2022-09-23T11:55:43.420Z,1004.7
2022-09-23T11:56:59.663Z,1004.6
2022-09-23T11:58:15.908Z,1004.7
2022-09-23T11:59:32.141Z,1004.6
2022-09-23T12:00:48.384Z,1004.7
2022-09-23T12:02:04.623Z,1004.6
2022-09-23T12:03:19.877Z,1004.6
2022-09-23T12:04:36.136Z,1004.6
2022-09-23T12:05:52.366Z,1004.6
2022-09-23T12:07:08.603Z,1004.6
2022-09-23T12:08:24.853Z,1004.6
2022-09-23T12:09:41.090Z,1004.5
2022-09-23T12:10:57.333Z,1004.6
2022-09-23T12:12:13.562Z,1004.6
2022-09-23T12:13:29.803Z,1004.5
2022-09-23T12:14:46.045Z,1004.5
2022-09-23T12:16:02.297Z,1004.5
2022-09-23T12:17:18.526Z,1004.5
2022-09-23T12:18:34.775Z,1004.4
2022-09-23T12:19:50.020Z,1004.5
2022-09-23T12:21:06.259Z,1004.5
2022-09-23T12:22:22.501Z,1004.5
2022-09-23T12:23:38.747Z,1004.4
2022-09-23T12:24:54.980Z,1004.4
2022-09-23T12:26:11.214Z,1004.4
2022-09-23T12:27:27.464Z,1004.4
2022-09-23T12:28:43.713Z,1004.3
2022-09-23T12:29:59.942Z,1004.4
2022-09-23T12:31:16.190Z,1004.4
2022-09-23T12:32:32.421Z,1004.4
2022-09-23T12:33:48.662Z,1004.4
2022-09-23T12:35:04.909Z,1004.3
2022-09-23T12:36:20.155Z,1004.4
2022-09-23T12:37:36.400Z,1004.4
2022-09-23T12:38:52.639Z,1004.4
2022-09-23T12:40:08.876Z,1004.3
2022-09-23T12:41:25.119Z,1004.4
2022-09-23T12:42:41.363Z,1004.3
2022-09-23T12:43:57.593Z,1004.3
2022-09-23T12:45:13.840Z,1004.3
2022-09-23T12:46:30.079Z,1004.3
2022-09-23T12:47:46.315Z,1004.3
2022-09-23T12:49:02.548Z,1004.3
2022-09-23T12:50:18.808Z,1004.2
2022-09-23T12:51:35.029Z,1004.2
2022-09-23T12:52:50.303Z,1004.2
2022-09-23T12:54:06.533Z,1004.2
2022-09-23T12:55:22.782Z,1004.2
2022-09-23T12:56:39.018Z,1004.2
2022-09-23T12:57:55.253Z,1004.2
2022-09-23T12:59:11.487Z,1004.2
2022-09-23T13:00:27.732Z,1004.2
2022-09-23T13:01:43.973Z,1004.2
2022-09-23T13:03:00.228Z,1004.2
2022-09-23T13:04:16.456Z,1004.2
2022-09-23T13:06:48.925Z,1004.1
2022-09-23T13:08:05.171Z,1004.1
2022-09-23T13:09:20.437Z,1004.1
2022-09-23T13:10:36.677Z,1004.1
2022-09-23T13:11:52.900Z,1004.1
2022-09-23T13:13:09.154Z,1004
2022-09-23T13:14:25.396Z,1004
2022-09-23T13:15:41.620Z,1004
2022-09-23T13:16:57.860Z,1004
2022-09-23T13:18:14.097Z,1004
2022-09-23T13:19:30.338Z,1004
2022-09-23T13:20:46.595Z,1003.9
2022-09-23T13:22:02.827Z,1003.9
2022-09-23T13:23:19.063Z,1003.9
2022-09-23T13:24:35.304Z,1003.9
2022-09-23T13:25:50.552Z,1003.9
2022-09-23T13:27:06.802Z,1003.9
2022-09-23T13:28:23.042Z,1003.9
2022-09-23T13:29:39.271Z,1003.9
2022-09-23T13:30:55.514Z,1003.9
2022-09-23T13:32:11.763Z,1003.9
2022-09-23T13:33:27.998Z,1003.8
2022-09-23T13:34:44.234Z,1003.8
2022-09-23T13:36:00.475Z,1003.7
2022-09-23T13:37:16.720Z,1003.7
2022-09-23T13:38:32.955Z,1003.7
2022-09-23T13:39:49.204Z,1003.7
2022-09-23T13:41:05.435Z,1003.6
2022-09-23T13:42:20.693Z,1003.6
2022-09-23T13:43:36.930Z,1003.6
2022-09-23T13:44:53.164Z,1003.6
2022-09-23T13:46:09.410Z,1003.5
2022-09-23T13:47:25.642Z,1003.5
2022-09-23T13:48:41.909Z,1003.5
2022-09-23T13:49:58.134Z,1003.4
2022-09-23T13:51:14.369Z,1003.4
2022-09-23T13:52:30.608Z,1003.4
2022-09-23T13:53:46.855Z,1003.4
2022-09-23T13:55:03.078Z,1003.4
2022-09-23T13:56:19.320Z,1003.3
2022-09-23T13:57:35.559Z,1003.3
2022-09-23T13:58:50.818Z,1003.3
2022-09-23T14:00:07.066Z,1003.3
2022-09-23T14:01:23.296Z,1003.3
2022-09-23T14:02:39.535Z,1003.3
2022-09-23T14:03:55.779Z,1003.3
2022-09-23T14:05:12.016Z,1003.3
2022-09-23T14:06:28.250Z,1003.2
2022-09-23T14:07:44.496Z,1003.3
2022-09-23T14:09:00.736Z,1003.2
2022-09-23T14:10:16.977Z,1003.2
2022-09-23T14:11:33.221Z,1003.1
2022-09-23T14:12:49.444Z,1003.1
2022-09-23T14:14:05.699Z,1003.1
2022-09-23T14:15:20.941Z,1003.2
2022-09-23T14:16:37.177Z,1003.1
2022-09-23T14:17:53.411Z,1003.1
2022-09-23T14:19:09.655Z,1003.1
2022-09-23T14:20:25.900Z,1003.1
2022-09-23T14:21:42.124Z,1003.1
2022-09-23T14:22:57.380Z,1003
2022-09-23T14:24:13.623Z,1003
2022-09-23T14:25:29.862Z,1003
2022-09-23T14:26:46.102Z,1003
2022-09-23T14:28:02.351Z,1003
2022-09-23T14:29:18.593Z,1003
2022-09-23T14:30:34.823Z,1002.9
2022-09-23T14:31:51.054Z,1003
2022-09-23T14:33:07.288Z,1003
2022-09-23T14:34:23.530Z,1003
2022-09-23T14:35:39.765Z,1002.9
2022-09-23T14:36:56.007Z,1003
2022-09-23T14:38:12.252Z,1002.9
2022-09-23T14:39:27.511Z,1002.9
2022-09-23T14:40:43.740Z,1002.9
2022-09-23T14:41:59.975Z,1002.9
2022-09-23T14:43:16.223Z,1002.9
2022-09-23T14:44:32.443Z,1002.9
2022-09-23T14:45:48.681Z,1002.8
2022-09-23T14:47:04.927Z,1002.9
2022-09-23T14:48:21.175Z,1002.9
2022-09-23T14:49:37.422Z,1002.9
2022-09-23T14:50:53.636Z,1002.8
2022-09-23T14:52:09.873Z,1002.8
2022-09-23T14:53:26.128Z,1002.8
2022-09-23T14:54:42.357Z,1002.8
2022-09-23T14:55:57.618Z,1002.8
2022-09-23T14:57:13.862Z,1002.8
2022-09-23T14:58:30.090Z,1002.7
2022-09-23T14:59:46.323Z,1002.7
2022-09-23T15:01:02.579Z,1002.7
2022-09-23T15:02:18.814Z,1002.7
2022-09-23T15:03:35.042Z,1002.7
2022-09-23T15:04:51.283Z,1002.7
2022-09-23T15:06:07.518Z,1002.7
2022-09-23T15:07:23.769Z,1002.7
2022-09-23T15:08:39.996Z,1002.7
2022-09-23T15:09:56.245Z,1002.7
2022-09-23T15:11:12.474Z,1002.7
2022-09-23T15:12:27.729Z,1002.7
2022-09-23T15:13:43.972Z,1002.6
2022-09-23T15:15:00.219Z,1002.6
2022-09-23T15:16:16.449Z,1002.7
2022-09-23T15:17:32.688Z,1002.6
2022-09-23T15:18:48.928Z,1002.7
2022-09-23T15:20:05.173Z,1002.7
2022-09-23T15:21:21.405Z,1002.6
2022-09-23T15:22:37.657Z,1002.6
2022-09-23T15:23:53.880Z,1002.7
2022-09-23T15:25:10.131Z,1002.6
2022-09-23T15:26:26.359Z,1002.6
2022-09-23T15:27:42.604Z,1002.6
2022-09-23T15:28:57.865Z,1002.6
2022-09-23T15:30:14.100Z,1002.6
2022-09-23T15:31:30.336Z,1002.5
2022-09-23T15:32:46.581Z,1002.6
2022-09-23T15:34:02.813Z,1002.5
2022-09-23T15:35:19.045Z,1002.6
2022-09-23T15:36:35.286Z,1002.5
2022-09-23T15:37:51.536Z,1002.5
2022-09-23T15:39:07.763Z,1002.5
2022-09-23T15:40:24.012Z,1002.5
2022-09-23T15:41:40.255Z,1002.5
2022-09-23T15:42:56.499Z,1002.5
2022-09-23T15:44:12.734Z,1002.5
2022-09-23T15:45:27.978Z,1002.5
2022-09-23T15:46:44.230Z,1002.5
2022-09-23T15:48:00.457Z,1002.5
2022-09-23T15:49:16.705Z,1002.5
2022-09-23T15:50:32.942Z,1002.6
2022-09-23T15:51:49.180Z,1002.5
2022-09-23T15:53:05.427Z,1002.6
2022-09-23T15:54:21.656Z,1002.5
2022-09-23T15:55:37.914Z,1002.4
2022-09-23T15:56:54.000Z,1002.5